sensor_id;sensor_type;location;lat;lon;timestamp;P1;durP1;ratioP1;P2;durP2;ratioP2
9924;SDS011;5001;51.674;7.868;2023-02-22T00:00:43;101.23;;;40.40;;
9924;SDS011;5001;51.674;7.868;2023-02-22T00:03:18;99.03;;;39.87;;
9924;SDS011;5001;51.674;7.868;2023-02-22T00:05:57;124.43;;;40.23;;
9924;SDS011;5001;51.674;7.868;2023-02-22T00:08:28;124.17;;;41.77;;
9924;SDS011;5001;51.674;7.868;2023-02-22T00:11:01;112.80;;;38.60;;
9924;SDS011;5001;51.674;7.868;2023-02-22T00:13:29;110.27;;;40.40;;
9924;SDS011;5001;51.674;7.868;2023-02-22T00:15:57;109.17;;;40.63;;
9924;SDS011;5001;51.674;7.868;2023-02-22T00:18:25;123.43;;;42.37;;
9924;SDS011;5001;51.674;7.868;2023-02-22T00:20:58;127.93;;;41.70;;
9924;SDS011;5001;51.674;7.868;2023-02-22T00:23:27;138.43;;;44.43;;
9924;SDS011;5001;51.674;7.868;2023-02-22T00:25:56;132.77;;;38.60;;
9924;SDS011;5001;51.674;7.868;2023-02-22T00:28:24;135.57;;;37.97;;
9924;SDS011;5001;51.674;7.868;2023-02-22T00:30:52;137.67;;;36.73;;
9924;SDS011;5001;51.674;7.868;2023-02-22T00:33:21;305.63;;;44.07;;
9924;SDS011;5001;51.674;7.868;2023-02-22T00:35:48;315.20;;;41.50;;
9924;SDS011;5001;51.674;7.868;2023-02-22T00:38:16;272.17;;;40.67;;
9924;SDS011;5001;51.674;7.868;2023-02-22T00:40:44;244.17;;;41.10;;
9924;SDS011;5001;51.674;7.868;2023-02-22T00:43:12;323.17;;;43.60;;
9924;SDS011;5001;51.674;7.868;2023-02-22T00:45:39;288.07;;;39.17;;
9924;SDS011;5001;51.674;7.868;2023-02-22T00:48:07;221.40;;;37.80;;
9924;SDS011;5001;51.674;7.868;2023-02-22T00:50:35;225.17;;;37.70;;
9924;SDS011;5001;51.674;7.868;2023-02-22T00:53:03;302.57;;;38.63;;
9924;SDS011;5001;51.674;7.868;2023-02-22T00:55:33;198.67;;;37.43;;
9924;SDS011;5001;51.674;7.868;2023-02-22T00:58:02;269.07;;;39.83;;
9924;SDS011;5001;51.674;7.868;2023-02-22T01:00:34;292.27;;;40.57;;
9924;SDS011;5001;51.674;7.868;2023-02-22T01:03:06;261.30;;;38.67;;
9924;SDS011;5001;51.674;7.868;2023-02-22T01:05:36;255.17;;;38.20;;
9924;SDS011;5001;51.674;7.868;2023-02-22T01:08:07;334.07;;;38.87;;
9924;SDS011;5001;51.674;7.868;2023-02-22T01:10:36;271.70;;;37.23;;
9924;SDS011;5001;51.674;7.868;2023-02-22T01:13:04;200.47;;;37.50;;
9924;SDS011;5001;51.674;7.868;2023-02-22T01:15:35;367.60;;;38.70;;
9924;SDS011;5001;51.674;7.868;2023-02-22T01:18:04;334.80;;;38.87;;
9924;SDS011;5001;51.674;7.868;2023-02-22T01:20:32;290.77;;;34.37;;
9924;SDS011;5001;51.674;7.868;2023-02-22T01:23:00;339.07;;;43.87;;
9924;SDS011;5001;51.674;7.868;2023-02-22T01:25:29;386.00;;;39.77;;
9924;SDS011;5001;51.674;7.868;2023-02-22T01:27:57;319.97;;;44.13;;
9924;SDS011;5001;51.674;7.868;2023-02-22T01:30:27;317.60;;;39.73;;
9924;SDS011;5001;51.674;7.868;2023-02-22T01:32:56;287.13;;;35.73;;
9924;SDS011;5001;51.674;7.868;2023-02-22T01:35:26;256.40;;;33.07;;
9924;SDS011;5001;51.674;7.868;2023-02-22T01:37:55;262.93;;;37.07;;
9924;SDS011;5001;51.674;7.868;2023-02-22T01:40:31;323.77;;;37.43;;
9924;SDS011;5001;51.674;7.868;2023-02-22T01:43:01;276.67;;;37.77;;
9924;SDS011;5001;51.674;7.868;2023-02-22T01:48:08;336.47;;;37.23;;
9924;SDS011;5001;51.674;7.868;2023-02-22T01:50:56;344.20;;;37.00;;
9924;SDS011;5001;51.674;7.868;2023-02-22T01:53:33;237.67;;;35.50;;
9924;SDS011;5001;51.674;7.868;2023-02-22T01:56:14;307.10;;;41.70;;
9924;SDS011;5001;51.674;7.868;2023-02-22T01:58:44;281.07;;;36.70;;
9924;SDS011;5001;51.674;7.868;2023-02-22T02:01:16;340.80;;;38.30;;
9924;SDS011;5001;51.674;7.868;2023-02-22T02:07:02;313.57;;;36.10;;
9924;SDS011;5001;51.674;7.868;2023-02-22T02:09:37;308.10;;;37.23;;
9924;SDS011;5001;51.674;7.868;2023-02-22T02:12:07;277.33;;;35.40;;
9924;SDS011;5001;51.674;7.868;2023-02-22T02:14:39;213.17;;;34.80;;
9924;SDS011;5001;51.674;7.868;2023-02-22T02:17:08;293.23;;;39.53;;
9924;SDS011;5001;51.674;7.868;2023-02-22T02:25:14;260.93;;;35.53;;
9924;SDS011;5001;51.674;7.868;2023-02-22T02:41:22;326.53;;;38.00;;
9924;SDS011;5001;51.674;7.868;2023-02-22T02:43:58;216.33;;;34.80;;
9924;SDS011;5001;51.674;7.868;2023-02-22T02:46:31;256.10;;;35.17;;
9924;SDS011;5001;51.674;7.868;2023-02-22T02:49:19;218.83;;;34.33;;
9924;SDS011;5001;51.674;7.868;2023-02-22T02:51:52;190.30;;;31.67;;
9924;SDS011;5001;51.674;7.868;2023-02-22T02:54:26;206.60;;;33.07;;
9924;SDS011;5001;51.674;7.868;2023-02-22T02:56:55;229.27;;;36.27;;
9924;SDS011;5001;51.674;7.868;2023-02-22T02:59:31;233.47;;;34.30;;
9924;SDS011;5001;51.674;7.868;2023-02-22T03:11:02;292.73;;;30.17;;
9924;SDS011;5001;51.674;7.868;2023-02-22T03:19:20;147.10;;;27.40;;
9924;SDS011;5001;51.674;7.868;2023-02-22T03:24:38;231.20;;;27.20;;
9924;SDS011;5001;51.674;7.868;2023-02-22T03:27:25;228.03;;;26.63;;
9924;SDS011;5001;51.674;7.868;2023-02-22T03:30:19;266.97;;;28.17;;
9924;SDS011;5001;51.674;7.868;2023-02-22T03:32:54;292.33;;;30.97;;
9924;SDS011;5001;51.674;7.868;2023-02-22T03:35:41;262.77;;;27.07;;
9924;SDS011;5001;51.674;7.868;2023-02-22T03:38:14;219.60;;;27.50;;
9924;SDS011;5001;51.674;7.868;2023-02-22T03:40:48;183.67;;;24.87;;
9924;SDS011;5001;51.674;7.868;2023-02-22T03:43:23;188.40;;;24.37;;
9924;SDS011;5001;51.674;7.868;2023-02-22T03:45:58;239.43;;;26.43;;
9924;SDS011;5001;51.674;7.868;2023-02-22T03:48:47;209.10;;;26.60;;
9924;SDS011;5001;51.674;7.868;2023-02-22T03:51:20;264.70;;;28.07;;
9924;SDS011;5001;51.674;7.868;2023-02-22T03:53:55;179.40;;;24.10;;
9924;SDS011;5001;51.674;7.868;2023-02-22T03:56:37;157.13;;;24.40;;
9924;SDS011;5001;51.674;7.868;2023-02-22T03:59:28;218.73;;;24.23;;
9924;SDS011;5001;51.674;7.868;2023-02-22T04:01:56;180.03;;;24.53;;
9924;SDS011;5001;51.674;7.868;2023-02-22T04:04:24;299.17;;;23.83;;
9924;SDS011;5001;51.674;7.868;2023-02-22T04:06:52;172.70;;;23.80;;
9924;SDS011;5001;51.674;7.868;2023-02-22T04:09:19;136.77;;;22.10;;
9924;SDS011;5001;51.674;7.868;2023-02-22T04:11:46;250.77;;;23.83;;
9924;SDS011;5001;51.674;7.868;2023-02-22T04:14:14;178.27;;;24.50;;
9924;SDS011;5001;51.674;7.868;2023-02-22T04:16:41;233.40;;;22.37;;
9924;SDS011;5001;51.674;7.868;2023-02-22T04:19:08;184.13;;;20.90;;
9924;SDS011;5001;51.674;7.868;2023-02-22T04:21:37;153.77;;;19.60;;
9924;SDS011;5001;51.674;7.868;2023-02-22T04:24:08;142.20;;;20.00;;
9924;SDS011;5001;51.674;7.868;2023-02-22T04:26:36;151.13;;;20.23;;
9924;SDS011;5001;51.674;7.868;2023-02-22T04:29:05;175.63;;;18.50;;
9924;SDS011;5001;51.674;7.868;2023-02-22T04:31:36;114.27;;;18.27;;
9924;SDS011;5001;51.674;7.868;2023-02-22T04:34:04;121.63;;;21.63;;
9924;SDS011;5001;51.674;7.868;2023-02-22T04:36:34;129.27;;;17.50;;
9924;SDS011;5001;51.674;7.868;2023-02-22T04:39:02;173.10;;;19.10;;
9924;SDS011;5001;51.674;7.868;2023-02-22T04:41:30;129.20;;;20.77;;
9924;SDS011;5001;51.674;7.868;2023-02-22T04:43:59;159.53;;;21.20;;
9924;SDS011;5001;51.674;7.868;2023-02-22T04:46:26;140.60;;;21.03;;
9924;SDS011;5001;51.674;7.868;2023-02-22T04:48:54;142.67;;;20.87;;
9924;SDS011;5001;51.674;7.868;2023-02-22T04:51:25;204.83;;;21.67;;
9924;SDS011;5001;51.674;7.868;2023-02-22T04:53:57;211.73;;;23.50;;
9924;SDS011;5001;51.674;7.868;2023-02-22T04:56:24;137.80;;;20.60;;
9924;SDS011;5001;51.674;7.868;2023-02-22T04:58:51;80.43;;;18.73;;
9924;SDS011;5001;51.674;7.868;2023-02-22T05:01:18;168.27;;;20.30;;
9924;SDS011;5001;51.674;7.868;2023-02-22T05:03:45;229.13;;;20.40;;
9924;SDS011;5001;51.674;7.868;2023-02-22T05:06:12;193.60;;;19.73;;
9924;SDS011;5001;51.674;7.868;2023-02-22T05:08:39;180.73;;;22.00;;
9924;SDS011;5001;51.674;7.868;2023-02-22T05:11:06;192.83;;;22.60;;
9924;SDS011;5001;51.674;7.868;2023-02-22T05:13:34;169.47;;;21.00;;
9924;SDS011;5001;51.674;7.868;2023-02-22T05:16:01;177.27;;;19.63;;
9924;SDS011;5001;51.674;7.868;2023-02-22T05:18:29;103.20;;;18.10;;
9924;SDS011;5001;51.674;7.868;2023-02-22T05:20:56;120.03;;;20.73;;
9924;SDS011;5001;51.674;7.868;2023-02-22T05:23:23;123.87;;;17.50;;
9924;SDS011;5001;51.674;7.868;2023-02-22T05:25:50;107.50;;;19.30;;
9924;SDS011;5001;51.674;7.868;2023-02-22T05:28:17;153.83;;;19.07;;
9924;SDS011;5001;51.674;7.868;2023-02-22T05:30:44;170.57;;;21.23;;
9924;SDS011;5001;51.674;7.868;2023-02-22T05:33:11;177.97;;;21.27;;
9924;SDS011;5001;51.674;7.868;2023-02-22T05:35:38;131.63;;;17.33;;
9924;SDS011;5001;51.674;7.868;2023-02-22T05:38:05;130.63;;;20.70;;
9924;SDS011;5001;51.674;7.868;2023-02-22T05:40:32;98.60;;;17.93;;
9924;SDS011;5001;51.674;7.868;2023-02-22T05:43:00;135.47;;;17.63;;
9924;SDS011;5001;51.674;7.868;2023-02-22T05:45:28;85.57;;;18.93;;
9924;SDS011;5001;51.674;7.868;2023-02-22T05:47:55;77.73;;;18.23;;
9924;SDS011;5001;51.674;7.868;2023-02-22T05:50:22;67.30;;;17.10;;
9924;SDS011;5001;51.674;7.868;2023-02-22T05:52:50;73.77;;;16.27;;
9924;SDS011;5001;51.674;7.868;2023-02-22T05:55:18;55.30;;;17.23;;
9924;SDS011;5001;51.674;7.868;2023-02-22T05:57:47;92.03;;;17.33;;
9924;SDS011;5001;51.674;7.868;2023-02-22T06:02:58;70.73;;;16.40;;
9924;SDS011;5001;51.674;7.868;2023-02-22T06:05:27;57.40;;;17.70;;
9924;SDS011;5001;51.674;7.868;2023-02-22T06:07:54;133.40;;;17.63;;
9924;SDS011;5001;51.674;7.868;2023-02-22T06:10:23;59.17;;;17.33;;
9924;SDS011;5001;51.674;7.868;2023-02-22T06:12:51;44.33;;;18.23;;
9924;SDS011;5001;51.674;7.868;2023-02-22T06:15:19;99.37;;;16.93;;
9924;SDS011;5001;51.674;7.868;2023-02-22T06:17:47;45.07;;;16.97;;
9924;SDS011;5001;51.674;7.868;2023-02-22T06:20:15;39.63;;;17.13;;
9924;SDS011;5001;51.674;7.868;2023-02-22T06:22:48;57.03;;;16.63;;
9924;SDS011;5001;51.674;7.868;2023-02-22T06:25:23;47.33;;;19.17;;
9924;SDS011;5001;51.674;7.868;2023-02-22T06:27:52;44.73;;;20.10;;
9924;SDS011;5001;51.674;7.868;2023-02-22T06:30:20;64.50;;;19.63;;
9924;SDS011;5001;51.674;7.868;2023-02-22T06:32:49;59.90;;;18.67;;
9924;SDS011;5001;51.674;7.868;2023-02-22T06:35:16;52.27;;;18.97;;
9924;SDS011;5001;51.674;7.868;2023-02-22T06:37:43;58.43;;;19.03;;
9924;SDS011;5001;51.674;7.868;2023-02-22T06:40:11;58.40;;;20.23;;
9924;SDS011;5001;51.674;7.868;2023-02-22T06:42:39;60.97;;;29.50;;
9924;SDS011;5001;51.674;7.868;2023-02-22T06:45:06;57.20;;;23.53;;
9924;SDS011;5001;51.674;7.868;2023-02-22T06:47:38;61.23;;;19.60;;
9924;SDS011;5001;51.674;7.868;2023-02-22T06:50:06;52.30;;;18.10;;
9924;SDS011;5001;51.674;7.868;2023-02-22T06:52:42;68.63;;;19.40;;
9924;SDS011;5001;51.674;7.868;2023-02-22T06:55:09;85.37;;;19.60;;
9924;SDS011;5001;51.674;7.868;2023-02-22T06:57:36;84.87;;;19.00;;
9924;SDS011;5001;51.674;7.868;2023-02-22T07:00:03;79.50;;;18.27;;
9924;SDS011;5001;51.674;7.868;2023-02-22T07:02:31;59.13;;;17.77;;
9924;SDS011;5001;51.674;7.868;2023-02-22T07:04:58;74.67;;;21.17;;
9924;SDS011;5001;51.674;7.868;2023-02-22T07:07:25;73.00;;;22.97;;
9924;SDS011;5001;51.674;7.868;2023-02-22T07:09:52;73.87;;;26.17;;
9924;SDS011;5001;51.674;7.868;2023-02-22T07:12:18;194.30;;;53.73;;
9924;SDS011;5001;51.674;7.868;2023-02-22T07:14:45;184.77;;;51.20;;
9924;SDS011;5001;51.674;7.868;2023-02-22T07:17:12;148.70;;;41.37;;
9924;SDS011;5001;51.674;7.868;2023-02-22T07:19:39;94.57;;;28.43;;
9924;SDS011;5001;51.674;7.868;2023-02-22T07:22:06;115.20;;;31.67;;
9924;SDS011;5001;51.674;7.868;2023-02-22T07:24:33;157.43;;;21.03;;
9924;SDS011;5001;51.674;7.868;2023-02-22T07:27:00;117.57;;;18.40;;
9924;SDS011;5001;51.674;7.868;2023-02-22T07:29:27;73.00;;;17.07;;
9924;SDS011;5001;51.674;7.868;2023-02-22T07:31:55;61.73;;;14.77;;
9924;SDS011;5001;51.674;7.868;2023-02-22T07:34:23;56.10;;;15.03;;
9924;SDS011;5001;51.674;7.868;2023-02-22T07:36:50;57.20;;;13.97;;
9924;SDS011;5001;51.674;7.868;2023-02-22T07:39:16;57.13;;;16.27;;
9924;SDS011;5001;51.674;7.868;2023-02-22T07:41:44;28.20;;;12.80;;
9924;SDS011;5001;51.674;7.868;2023-02-22T07:44:20;23.67;;;13.30;;
9924;SDS011;5001;51.674;7.868;2023-02-22T07:46:47;26.67;;;14.53;;
9924;SDS011;5001;51.674;7.868;2023-02-22T07:49:15;20.33;;;13.37;;
9924;SDS011;5001;51.674;7.868;2023-02-22T07:51:42;16.27;;;11.67;;
9924;SDS011;5001;51.674;7.868;2023-02-22T07:54:09;15.00;;;11.30;;
9924;SDS011;5001;51.674;7.868;2023-02-22T07:56:36;13.90;;;10.53;;
9924;SDS011;5001;51.674;7.868;2023-02-22T07:59:12;12.10;;;10.80;;
9924;SDS011;5001;51.674;7.868;2023-02-22T08:01:40;11.27;;;9.33;;
9924;SDS011;5001;51.674;7.868;2023-02-22T08:04:07;13.23;;;9.53;;
9924;SDS011;5001;51.674;7.868;2023-02-22T08:06:34;11.53;;;10.00;;
9924;SDS011;5001;51.674;7.868;2023-02-22T08:09:01;11.10;;;9.83;;
9924;SDS011;5001;51.674;7.868;2023-02-22T08:11:28;10.93;;;9.17;;
9924;SDS011;5001;51.674;7.868;2023-02-22T08:13:55;10.73;;;9.47;;
9924;SDS011;5001;51.674;7.868;2023-02-22T08:16:22;10.10;;;8.47;;
9924;SDS011;5001;51.674;7.868;2023-02-22T08:18:49;9.73;;;8.67;;
9924;SDS011;5001;51.674;7.868;2023-02-22T08:21:16;10.80;;;9.47;;
9924;SDS011;5001;51.674;7.868;2023-02-22T08:23:44;10.77;;;9.13;;
9924;SDS011;5001;51.674;7.868;2023-02-22T08:26:10;9.73;;;8.13;;
9924;SDS011;5001;51.674;7.868;2023-02-22T08:28:43;9.03;;;8.10;;
9924;SDS011;5001;51.674;7.868;2023-02-22T08:31:10;9.67;;;8.03;;
9924;SDS011;5001;51.674;7.868;2023-02-22T08:33:37;9.10;;;7.47;;
9924;SDS011;5001;51.674;7.868;2023-02-22T08:36:04;8.57;;;7.57;;
9924;SDS011;5001;51.674;7.868;2023-02-22T08:38:31;8.23;;;7.40;;
9924;SDS011;5001;51.674;7.868;2023-02-22T08:40:59;9.43;;;7.53;;
9924;SDS011;5001;51.674;7.868;2023-02-22T08:43:26;8.00;;;7.03;;
9924;SDS011;5001;51.674;7.868;2023-02-22T08:45:53;8.23;;;7.33;;
9924;SDS011;5001;51.674;7.868;2023-02-22T08:48:23;7.23;;;6.23;;
9924;SDS011;5001;51.674;7.868;2023-02-22T08:50:50;7.77;;;6.90;;
9924;SDS011;5001;51.674;7.868;2023-02-22T08:53:17;8.20;;;6.80;;
9924;SDS011;5001;51.674;7.868;2023-02-22T08:55:44;10.50;;;7.23;;
9924;SDS011;5001;51.674;7.868;2023-02-22T08:58:11;10.13;;;7.27;;
9924;SDS011;5001;51.674;7.868;2023-02-22T09:00:39;7.83;;;7.03;;
9924;SDS011;5001;51.674;7.868;2023-02-22T09:03:08;9.47;;;6.63;;
9924;SDS011;5001;51.674;7.868;2023-02-22T09:05:38;7.53;;;6.60;;
9924;SDS011;5001;51.674;7.868;2023-02-22T09:08:06;9.67;;;7.00;;
9924;SDS011;5001;51.674;7.868;2023-02-22T09:10:33;7.90;;;6.93;;
9924;SDS011;5001;51.674;7.868;2023-02-22T09:13:01;7.20;;;6.50;;
9924;SDS011;5001;51.674;7.868;2023-02-22T09:15:29;8.37;;;7.20;;
9924;SDS011;5001;51.674;7.868;2023-02-22T09:17:57;8.40;;;7.27;;
9924;SDS011;5001;51.674;7.868;2023-02-22T09:20:25;8.53;;;6.77;;
9924;SDS011;5001;51.674;7.868;2023-02-22T09:22:52;11.17;;;7.13;;
9924;SDS011;5001;51.674;7.868;2023-02-22T09:25:20;6.20;;;5.60;;
9924;SDS011;5001;51.674;7.868;2023-02-22T09:27:49;9.48;;;6.00;;
9924;SDS011;5001;51.674;7.868;2023-02-22T09:32:58;9.45;;;6.43;;
9924;SDS011;5001;51.674;7.868;2023-02-22T09:35:28;6.93;;;5.97;;
9924;SDS011;5001;51.674;7.868;2023-02-22T09:37:56;7.10;;;6.40;;
9924;SDS011;5001;51.674;7.868;2023-02-22T09:40:24;7.88;;;6.88;;
9924;SDS011;5001;51.674;7.868;2023-02-22T09:51:58;9.75;;;8.00;;
9924;SDS011;5001;51.674;7.868;2023-02-22T09:54:37;10.32;;;7.97;;
9924;SDS011;5001;51.674;7.868;2023-02-22T09:57:14;10.48;;;7.95;;
9924;SDS011;5001;51.674;7.868;2023-02-22T09:59:49;11.57;;;7.35;;
9924;SDS011;5001;51.674;7.868;2023-02-22T10:02:31;11.45;;;7.40;;
9924;SDS011;5001;51.674;7.868;2023-02-22T10:07:47;9.50;;;7.72;;
9924;SDS011;5001;51.674;7.868;2023-02-22T10:10:20;9.77;;;7.82;;
9924;SDS011;5001;51.674;7.868;2023-02-22T10:12:58;9.95;;;8.52;;
9924;SDS011;5001;51.674;7.868;2023-02-22T10:26:25;12.98;;;9.05;;
9924;SDS011;5001;51.674;7.868;2023-02-22T10:31:52;11.63;;;8.18;;
9924;SDS011;5001;51.674;7.868;2023-02-22T10:34:24;13.32;;;8.55;;
9924;SDS011;5001;51.674;7.868;2023-02-22T10:37:11;14.07;;;8.52;;
9924;SDS011;5001;51.674;7.868;2023-02-22T10:39:42;12.93;;;9.00;;
9924;SDS011;5001;51.674;7.868;2023-02-22T10:42:10;21.42;;;12.27;;
9924;SDS011;5001;51.674;7.868;2023-02-22T10:44:38;8.52;;;6.78;;
9924;SDS011;5001;51.674;7.868;2023-02-22T10:47:07;12.77;;;9.80;;
9924;SDS011;5001;51.674;7.868;2023-02-22T10:49:45;11.00;;;9.20;;
9924;SDS011;5001;51.674;7.868;2023-02-22T10:52:22;11.50;;;8.18;;
9924;SDS011;5001;51.674;7.868;2023-02-22T10:54:56;10.35;;;7.85;;
9924;SDS011;5001;51.674;7.868;2023-02-22T10:57:40;10.88;;;7.80;;
9924;SDS011;5001;51.674;7.868;2023-02-22T11:02:55;8.70;;;7.35;;
9924;SDS011;5001;51.674;7.868;2023-02-22T11:05:29;13.25;;;7.22;;
9924;SDS011;5001;51.674;7.868;2023-02-22T11:08:17;7.70;;;6.90;;
9924;SDS011;5001;51.674;7.868;2023-02-22T11:10:47;12.68;;;7.72;;
9924;SDS011;5001;51.674;7.868;2023-02-22T11:13:29;10.57;;;7.95;;
9924;SDS011;5001;51.674;7.868;2023-02-22T11:16:40;10.90;;;8.18;;
9924;SDS011;5001;51.674;7.868;2023-02-22T11:18:59;12.57;;;8.13;;
9924;SDS011;5001;51.674;7.868;2023-02-22T11:21:27;10.20;;;7.63;;
9924;SDS011;5001;51.674;7.868;2023-02-22T11:24:04;8.57;;;7.30;;
9924;SDS011;5001;51.674;7.868;2023-02-22T11:26:36;8.75;;;7.70;;
9924;SDS011;5001;51.674;7.868;2023-02-22T11:29:24;11.57;;;7.68;;
9924;SDS011;5001;51.674;7.868;2023-02-22T11:31:52;8.45;;;7.57;;
9924;SDS011;5001;51.674;7.868;2023-02-22T11:34:28;14.98;;;8.40;;
9924;SDS011;5001;51.674;7.868;2023-02-22T11:36:58;11.38;;;8.18;;
9924;SDS011;5001;51.674;7.868;2023-02-22T11:43:12;11.00;;;8.10;;
9924;SDS011;5001;51.674;7.868;2023-02-22T11:45:58;9.95;;;7.38;;
9924;SDS011;5001;51.674;7.868;2023-02-22T11:48:35;9.95;;;7.32;;
9924;SDS011;5001;51.674;7.868;2023-02-22T11:51:08;9.40;;;7.63;;
9924;SDS011;5001;51.674;7.868;2023-02-22T11:59:09;8.80;;;7.40;;
9924;SDS011;5001;51.674;7.868;2023-02-22T12:07:41;10.15;;;6.80;;
9924;SDS011;5001;51.674;7.868;2023-02-22T12:21:39;7.85;;;5.38;;
9924;SDS011;5001;51.674;7.868;2023-02-22T12:24:12;9.65;;;6.70;;
9924;SDS011;5001;51.674;7.868;2023-02-22T12:26:52;9.45;;;5.80;;
9924;SDS011;5001;51.674;7.868;2023-02-22T12:29:27;11.30;;;5.32;;
9924;SDS011;5001;51.674;7.868;2023-02-22T12:35:02;9.23;;;5.60;;
9924;SDS011;5001;51.674;7.868;2023-02-22T12:37:59;7.22;;;5.30;;
9924;SDS011;5001;51.674;7.868;2023-02-22T12:41:03;7.20;;;5.38;;
9924;SDS011;5001;51.674;7.868;2023-02-22T12:44:14;10.25;;;5.60;;
9924;SDS011;5001;51.674;7.868;2023-02-22T12:46:39;11.45;;;4.95;;
9924;SDS011;5001;51.674;7.868;2023-02-22T12:49:14;8.00;;;4.68;;
9924;SDS011;5001;51.674;7.868;2023-02-22T12:57:08;7.85;;;4.47;;
9924;SDS011;5001;51.674;7.868;2023-02-22T12:59:52;9.45;;;5.97;;
9924;SDS011;5001;51.674;7.868;2023-02-22T13:02:29;8.45;;;5.20;;
9924;SDS011;5001;51.674;7.868;2023-02-22T13:05:02;8.50;;;5.95;;
9924;SDS011;5001;51.674;7.868;2023-02-22T13:13:23;5.65;;;4.18;;
9924;SDS011;5001;51.674;7.868;2023-02-22T13:21:40;4.28;;;3.60;;
9924;SDS011;5001;51.674;7.868;2023-02-22T13:24:25;7.82;;;3.50;;
9924;SDS011;5001;51.674;7.868;2023-02-22T13:29:47;5.13;;;3.67;;
9924;SDS011;5001;51.674;7.868;2023-02-22T13:46:15;6.45;;;3.15;;
9924;SDS011;5001;51.674;7.868;2023-02-22T13:57:40;4.47;;;3.13;;
9924;SDS011;5001;51.674;7.868;2023-02-22T14:03:00;5.65;;;3.05;;
9924;SDS011;5001;51.674;7.868;2023-02-22T14:10:51;4.55;;;3.33;;
9924;SDS011;5001;51.674;7.868;2023-02-22T14:13:24;6.38;;;3.10;;
9924;SDS011;5001;51.674;7.868;2023-02-22T14:18:29;4.30;;;2.85;;
9924;SDS011;5001;51.674;7.868;2023-02-22T14:21:18;5.57;;;3.17;;
9924;SDS011;5001;51.674;7.868;2023-02-22T14:23:50;4.93;;;2.92;;
9924;SDS011;5001;51.674;7.868;2023-02-22T14:41:50;3.63;;;2.83;;
9924;SDS011;5001;51.674;7.868;2023-02-22T14:44:29;6.38;;;3.10;;
9924;SDS011;5001;51.674;7.868;2023-02-22T14:47:05;3.85;;;2.60;;
9924;SDS011;5001;51.674;7.868;2023-02-22T14:49:37;6.25;;;3.33;;
9924;SDS011;5001;51.674;7.868;2023-02-22T14:52:16;6.30;;;3.13;;
9924;SDS011;5001;51.674;7.868;2023-02-22T15:00:12;4.85;;;3.70;;
9924;SDS011;5001;51.674;7.868;2023-02-22T15:02:46;6.88;;;5.90;;
9924;SDS011;5001;51.674;7.868;2023-02-22T15:05:16;13.20;;;5.07;;
9924;SDS011;5001;51.674;7.868;2023-02-22T15:07:55;5.75;;;4.18;;
9924;SDS011;5001;51.674;7.868;2023-02-22T15:10:26;6.40;;;3.63;;
9924;SDS011;5001;51.674;7.868;2023-02-22T15:12:58;6.15;;;4.18;;
9924;SDS011;5001;51.674;7.868;2023-02-22T15:15:47;4.90;;;2.92;;
9924;SDS011;5001;51.674;7.868;2023-02-22T15:18:36;3.92;;;2.60;;
9924;SDS011;5001;51.674;7.868;2023-02-22T15:21:11;6.00;;;3.15;;
9924;SDS011;5001;51.674;7.868;2023-02-22T15:23:44;4.43;;;2.80;;
9924;SDS011;5001;51.674;7.868;2023-02-22T15:26:15;8.25;;;3.30;;
9924;SDS011;5001;51.674;7.868;2023-02-22T15:28:52;7.50;;;4.70;;
9924;SDS011;5001;51.674;7.868;2023-02-22T15:31:22;9.55;;;4.47;;
9924;SDS011;5001;51.674;7.868;2023-02-22T15:33:51;8.10;;;4.57;;
9924;SDS011;5001;51.674;7.868;2023-02-22T15:36:24;7.22;;;4.32;;
9924;SDS011;5001;51.674;7.868;2023-02-22T15:38:53;5.78;;;3.60;;
9924;SDS011;5001;51.674;7.868;2023-02-22T15:41:28;4.75;;;3.42;;
9924;SDS011;5001;51.674;7.868;2023-02-22T15:46:49;5.78;;;3.20;;
9924;SDS011;5001;51.674;7.868;2023-02-22T15:49:20;6.32;;;3.33;;
9924;SDS011;5001;51.674;7.868;2023-02-22T15:52:31;4.93;;;3.33;;
9924;SDS011;5001;51.674;7.868;2023-02-22T15:54:42;4.47;;;2.90;;
9924;SDS011;5001;51.674;7.868;2023-02-22T15:57:13;5.25;;;2.60;;
9924;SDS011;5001;51.674;7.868;2023-02-22T15:59:43;4.85;;;2.75;;
9924;SDS011;5001;51.674;7.868;2023-02-22T16:02:27;4.57;;;3.08;;
9924;SDS011;5001;51.674;7.868;2023-02-22T16:05:05;4.22;;;3.25;;
9924;SDS011;5001;51.674;7.868;2023-02-22T16:07:38;11.02;;;5.05;;
9924;SDS011;5001;51.674;7.868;2023-02-22T16:13:03;14.27;;;9.43;;
9924;SDS011;5001;51.674;7.868;2023-02-22T16:15:59;11.88;;;8.15;;
9924;SDS011;5001;51.674;7.868;2023-02-22T16:18:29;11.38;;;6.53;;
9924;SDS011;5001;51.674;7.868;2023-02-22T16:23:50;18.02;;;12.52;;
9924;SDS011;5001;51.674;7.868;2023-02-22T16:26:28;12.60;;;7.80;;
9924;SDS011;5001;51.674;7.868;2023-02-22T16:29:00;11.13;;;7.28;;
9924;SDS011;5001;51.674;7.868;2023-02-22T16:31:30;8.43;;;4.88;;
9924;SDS011;5001;51.674;7.868;2023-02-22T16:34:06;9.38;;;4.80;;
9924;SDS011;5001;51.674;7.868;2023-02-22T16:36:38;9.70;;;5.28;;
9924;SDS011;5001;51.674;7.868;2023-02-22T16:39:26;25.33;;;13.55;;
9924;SDS011;5001;51.674;7.868;2023-02-22T16:41:56;18.80;;;11.10;;
9924;SDS011;5001;51.674;7.868;2023-02-22T16:44:26;10.07;;;6.63;;
9924;SDS011;5001;51.674;7.868;2023-02-22T16:46:57;9.23;;;6.20;;
9924;SDS011;5001;51.674;7.868;2023-02-22T16:49:26;7.15;;;5.85;;
9924;SDS011;5001;51.674;7.868;2023-02-22T16:51:54;14.68;;;11.07;;
9924;SDS011;5001;51.674;7.868;2023-02-22T16:54:25;31.58;;;23.50;;
9924;SDS011;5001;51.674;7.868;2023-02-22T16:56:55;51.70;;;35.60;;
9924;SDS011;5001;51.674;7.868;2023-02-22T16:59:25;32.42;;;26.30;;
9924;SDS011;5001;51.674;7.868;2023-02-22T17:01:53;9.90;;;5.50;;
9924;SDS011;5001;51.674;7.868;2023-02-22T17:04:21;12.40;;;4.15;;
9924;SDS011;5001;51.674;7.868;2023-02-22T17:06:52;6.93;;;4.47;;
9924;SDS011;5001;51.674;7.868;2023-02-22T17:09:19;8.82;;;5.10;;
9924;SDS011;5001;51.674;7.868;2023-02-22T17:11:47;8.03;;;4.10;;
9924;SDS011;5001;51.674;7.868;2023-02-22T17:14:16;10.13;;;5.20;;
9924;SDS011;5001;51.674;7.868;2023-02-22T17:16:45;20.33;;;9.90;;
9924;SDS011;5001;51.674;7.868;2023-02-22T17:19:16;14.77;;;10.00;;
9924;SDS011;5001;51.674;7.868;2023-02-22T17:21:45;96.80;;;55.30;;
9924;SDS011;5001;51.674;7.868;2023-02-22T17:24:13;15.27;;;12.07;;
9924;SDS011;5001;51.674;7.868;2023-02-22T17:26:45;12.53;;;7.37;;
9924;SDS011;5001;51.674;7.868;2023-02-22T17:29:12;12.93;;;9.27;;
9924;SDS011;5001;51.674;7.868;2023-02-22T17:31:40;18.33;;;13.47;;
9924;SDS011;5001;51.674;7.868;2023-02-22T17:34:07;14.97;;;10.40;;
9924;SDS011;5001;51.674;7.868;2023-02-22T17:36:34;22.27;;;16.17;;
9924;SDS011;5001;51.674;7.868;2023-02-22T17:39:02;14.33;;;9.37;;
9924;SDS011;5001;51.674;7.868;2023-02-22T17:41:30;14.10;;;10.07;;
9924;SDS011;5001;51.674;7.868;2023-02-22T17:43:57;15.93;;;8.47;;
9924;SDS011;5001;51.674;7.868;2023-02-22T17:46:24;13.67;;;8.27;;
9924;SDS011;5001;51.674;7.868;2023-02-22T17:48:51;11.50;;;7.60;;
9924;SDS011;5001;51.674;7.868;2023-02-22T17:51:22;13.70;;;8.60;;
9924;SDS011;5001;51.674;7.868;2023-02-22T17:53:51;12.10;;;8.70;;
9924;SDS011;5001;51.674;7.868;2023-02-22T17:56:18;30.47;;;18.13;;
9924;SDS011;5001;51.674;7.868;2023-02-22T17:58:47;24.50;;;14.70;;
9924;SDS011;5001;51.674;7.868;2023-02-22T18:01:25;14.33;;;10.90;;
9924;SDS011;5001;51.674;7.868;2023-02-22T18:03:55;14.50;;;8.17;;
9924;SDS011;5001;51.674;7.868;2023-02-22T18:06:25;13.00;;;6.83;;
9924;SDS011;5001;51.674;7.868;2023-02-22T18:08:54;16.53;;;9.80;;
9924;SDS011;5001;51.674;7.868;2023-02-22T18:11:23;13.20;;;10.80;;
9924;SDS011;5001;51.674;7.868;2023-02-22T18:13:55;14.17;;;9.23;;
9924;SDS011;5001;51.674;7.868;2023-02-22T18:16:23;12.83;;;9.50;;
9924;SDS011;5001;51.674;7.868;2023-02-22T18:18:51;16.37;;;10.13;;
9924;SDS011;5001;51.674;7.868;2023-02-22T18:21:19;12.43;;;8.73;;
9924;SDS011;5001;51.674;7.868;2023-02-22T18:23:47;12.57;;;9.07;;
9924;SDS011;5001;51.674;7.868;2023-02-22T18:26:15;13.80;;;9.90;;